sensor_id;sensor_type;location;lat;lon;timestamp;P1;durP1;ratioP1;P2;durP2;ratioP2
50709;SDS011;37033;49.994;21.992;2023-03-11T00:01:15;11.10;;;6.90;;
50709;SDS011;37033;49.994;21.992;2023-03-11T00:03:46;4.00;;;3.60;;
50709;SDS011;37033;49.994;21.992;2023-03-11T00:06:17;6.10;;;4.10;;
50709;SDS011;37033;49.994;21.992;2023-03-11T00:08:48;4.90;;;4.00;;
50709;SDS011;37033;49.994;21.992;2023-03-11T00:11:19;5.30;;;4.30;;
50709;SDS011;37033;49.994;21.992;2023-03-11T00:13:50;5.60;;;3.70;;
50709;SDS011;37033;49.994;21.992;2023-03-11T00:16:21;5.20;;;4.50;;
50709;SDS011;37033;49.994;21.992;2023-03-11T00:18:52;4.60;;;4.00;;
50709;SDS011;37033;49.994;21.992;2023-03-11T00:21:22;3.60;;;3.30;;
50709;SDS011;37033;49.994;21.992;2023-03-11T00:23:53;4.30;;;3.30;;
50709;SDS011;37033;49.994;21.992;2023-03-11T00:26:27;4.00;;;3.00;;
50709;SDS011;37033;49.994;21.992;2023-03-11T00:28:58;4.10;;;3.70;;
50709;SDS011;37033;49.994;21.992;2023-03-11T00:31:29;5.70;;;3.50;;
50709;SDS011;37033;49.994;21.992;2023-03-11T00:34:00;4.10;;;3.40;;
50709;SDS011;37033;49.994;21.992;2023-03-11T00:36:31;4.40;;;3.80;;
50709;SDS011;37033;49.994;21.992;2023-03-11T00:39:03;3.60;;;3.30;;
50709;SDS011;37033;49.994;21.992;2023-03-11T00:41:34;3.80;;;3.00;;
50709;SDS011;37033;49.994;21.992;2023-03-11T00:44:05;4.00;;;3.50;;
50709;SDS011;37033;49.994;21.992;2023-03-11T00:46:35;3.40;;;3.00;;
50709;SDS011;37033;49.994;21.992;2023-03-11T00:49:06;3.60;;;3.30;;
50709;SDS011;37033;49.994;21.992;2023-03-11T00:51:38;3.80;;;2.90;;
50709;SDS011;37033;49.994;21.992;2023-03-11T00:54:08;3.00;;;2.80;;
50709;SDS011;37033;49.994;21.992;2023-03-11T00:56:39;2.60;;;2.30;;
50709;SDS011;37033;49.994;21.992;2023-03-11T00:59:10;3.00;;;2.40;;
50709;SDS011;37033;49.994;21.992;2023-03-11T01:01:41;3.20;;;2.50;;
50709;SDS011;37033;49.994;21.992;2023-03-11T01:04:11;2.60;;;2.40;;
50709;SDS011;37033;49.994;21.992;2023-03-11T01:06:43;3.40;;;3.10;;
50709;SDS011;37033;49.994;21.992;2023-03-11T01:09:13;4.40;;;2.40;;
50709;SDS011;37033;49.994;21.992;2023-03-11T01:11:44;2.80;;;2.30;;
50709;SDS011;37033;49.994;21.992;2023-03-11T01:14:15;3.10;;;2.00;;
50709;SDS011;37033;49.994;21.992;2023-03-11T01:16:46;2.10;;;1.60;;
50709;SDS011;37033;49.994;21.992;2023-03-11T01:19:16;2.50;;;1.80;;
50709;SDS011;37033;49.994;21.992;2023-03-11T01:21:47;2.90;;;1.60;;
50709;SDS011;37033;49.994;21.992;2023-03-11T01:24:18;3.20;;;1.40;;
50709;SDS011;37033;49.994;21.992;2023-03-11T01:26:49;2.30;;;1.60;;
50709;SDS011;37033;49.994;21.992;2023-03-11T01:29:19;1.90;;;1.70;;
50709;SDS011;37033;49.994;21.992;2023-03-11T01:31:50;4.00;;;2.60;;
50709;SDS011;37033;49.994;21.992;2023-03-11T01:34:21;6.10;;;3.10;;
50709;SDS011;37033;49.994;21.992;2023-03-11T01:36:52;4.90;;;2.80;;
50709;SDS011;37033;49.994;21.992;2023-03-11T01:39:23;2.30;;;1.40;;
50709;SDS011;37033;49.994;21.992;2023-03-11T01:41:54;2.20;;;1.30;;
50709;SDS011;37033;49.994;21.992;2023-03-11T01:44:25;2.00;;;1.50;;
50709;SDS011;37033;49.994;21.992;2023-03-11T01:49:53;2.00;;;1.80;;
50709;SDS011;37033;49.994;21.992;2023-03-11T01:52:24;2.30;;;1.50;;
50709;SDS011;37033;49.994;21.992;2023-03-11T01:54:55;2.10;;;1.50;;
50709;SDS011;37033;49.994;21.992;2023-03-11T01:57:26;2.20;;;1.70;;
50709;SDS011;37033;49.994;21.992;2023-03-11T01:59:57;1.80;;;1.20;;
50709;SDS011;37033;49.994;21.992;2023-03-11T02:02:34;1.20;;;1.10;;
50709;SDS011;37033;49.994;21.992;2023-03-11T02:05:08;1.80;;;1.50;;
50709;SDS011;37033;49.994;21.992;2023-03-11T02:07:39;1.60;;;1.30;;
50709;SDS011;37033;49.994;21.992;2023-03-11T02:10:11;1.90;;;1.50;;
50709;SDS011;37033;49.994;21.992;2023-03-11T02:12:42;1.60;;;1.50;;
50709;SDS011;37033;49.994;21.992;2023-03-11T02:15:16;3.20;;;1.60;;
50709;SDS011;37033;49.994;21.992;2023-03-11T02:17:47;1.60;;;1.50;;
50709;SDS011;37033;49.994;21.992;2023-03-11T02:20:21;1.70;;;1.30;;
50709;SDS011;37033;49.994;21.992;2023-03-11T02:23:01;1.80;;;1.30;;
50709;SDS011;37033;49.994;21.992;2023-03-11T02:25:33;1.70;;;1.50;;
50709;SDS011;37033;49.994;21.992;2023-03-11T02:28:10;1.80;;;1.30;;
50709;SDS011;37033;49.994;21.992;2023-03-11T02:30:42;1.20;;;1.10;;
50709;SDS011;37033;49.994;21.992;2023-03-11T02:33:13;1.80;;;1.50;;
50709;SDS011;37033;49.994;21.992;2023-03-11T02:35:46;1.60;;;1.30;;
50709;SDS011;37033;49.994;21.992;2023-03-11T02:38:17;1.30;;;1.10;;
50709;SDS011;37033;49.994;21.992;2023-03-11T02:40:49;2.40;;;1.50;;
50709;SDS011;37033;49.994;21.992;2023-03-11T02:43:24;1.20;;;1.10;;
50709;SDS011;37033;49.994;21.992;2023-03-11T02:46:01;1.60;;;1.20;;
50709;SDS011;37033;49.994;21.992;2023-03-11T02:48:36;1.80;;;1.40;;
50709;SDS011;37033;49.994;21.992;2023-03-11T02:51:07;1.40;;;1.30;;
50709;SDS011;37033;49.994;21.992;2023-03-11T02:53:40;1.70;;;1.40;;
50709;SDS011;37033;49.994;21.992;2023-03-11T02:56:16;2.50;;;1.80;;
50709;SDS011;37033;49.994;21.992;2023-03-11T02:58:47;1.80;;;1.60;;
50709;SDS011;37033;49.994;21.992;2023-03-11T03:01:17;2.50;;;1.60;;
50709;SDS011;37033;49.994;21.992;2023-03-11T03:03:48;1.70;;;1.60;;
50709;SDS011;37033;49.994;21.992;2023-03-11T03:06:19;2.70;;;1.70;;
50709;SDS011;37033;49.994;21.992;2023-03-11T03:08:51;2.80;;;1.50;;
50709;SDS011;37033;49.994;21.992;2023-03-11T03:11:23;2.10;;;1.50;;
50709;SDS011;37033;49.994;21.992;2023-03-11T03:13:53;1.60;;;1.40;;
50709;SDS011;37033;49.994;21.992;2023-03-11T03:16:24;2.10;;;1.30;;
50709;SDS011;37033;49.994;21.992;2023-03-11T03:18:55;2.20;;;1.60;;
50709;SDS011;37033;49.994;21.992;2023-03-11T03:21:25;3.60;;;2.10;;
50709;SDS011;37033;49.994;21.992;2023-03-11T03:23:56;1.50;;;1.40;;
50709;SDS011;37033;49.994;21.992;2023-03-11T03:26:27;1.70;;;1.40;;
50709;SDS011;37033;49.994;21.992;2023-03-11T03:28:58;2.80;;;1.80;;
50709;SDS011;37033;49.994;21.992;2023-03-11T03:31:28;2.00;;;1.70;;
50709;SDS011;37033;49.994;21.992;2023-03-11T03:33:59;2.90;;;2.20;;
50709;SDS011;37033;49.994;21.992;2023-03-11T03:36:30;3.30;;;1.50;;
50709;SDS011;37033;49.994;21.992;2023-03-11T03:39:00;2.50;;;2.00;;
50709;SDS011;37033;49.994;21.992;2023-03-11T03:41:31;1.50;;;1.40;;
50709;SDS011;37033;49.994;21.992;2023-03-11T03:44:02;2.80;;;1.80;;
50709;SDS011;37033;49.994;21.992;2023-03-11T03:46:33;3.10;;;1.80;;
50709;SDS011;37033;49.994;21.992;2023-03-11T03:49:05;3.30;;;1.70;;
50709;SDS011;37033;49.994;21.992;2023-03-11T03:51:35;2.40;;;1.60;;
50709;SDS011;37033;49.994;21.992;2023-03-11T03:54:06;2.20;;;1.70;;
50709;SDS011;37033;49.994;21.992;2023-03-11T03:56:37;2.30;;;1.70;;
50709;SDS011;37033;49.994;21.992;2023-03-11T03:59:08;1.80;;;1.50;;
50709;SDS011;37033;49.994;21.992;2023-03-11T04:01:39;1.20;;;1.10;;
50709;SDS011;37033;49.994;21.992;2023-03-11T04:04:09;1.50;;;1.20;;
50709;SDS011;37033;49.994;21.992;2023-03-11T04:06:41;2.40;;;1.70;;
50709;SDS011;37033;49.994;21.992;2023-03-11T04:09:12;3.80;;;1.70;;
50709;SDS011;37033;49.994;21.992;2023-03-11T04:11:43;1.70;;;1.40;;
50709;SDS011;37033;49.994;21.992;2023-03-11T04:14:13;2.40;;;1.80;;
50709;SDS011;37033;49.994;21.992;2023-03-11T04:16:44;1.60;;;1.30;;
50709;SDS011;37033;49.994;21.992;2023-03-11T04:19:15;1.80;;;1.50;;
50709;SDS011;37033;49.994;21.992;2023-03-11T04:21:45;1.80;;;1.50;;
50709;SDS011;37033;49.994;21.992;2023-03-11T04:24:18;2.40;;;1.50;;
50709;SDS011;37033;49.994;21.992;2023-03-11T04:26:49;3.40;;;1.60;;
50709;SDS011;37033;49.994;21.992;2023-03-11T04:29:19;3.50;;;1.70;;
50709;SDS011;37033;49.994;21.992;2023-03-11T04:31:50;2.90;;;1.90;;
50709;SDS011;37033;49.994;21.992;2023-03-11T04:34:21;5.00;;;2.70;;
50709;SDS011;37033;49.994;21.992;2023-03-11T04:36:52;5.10;;;4.60;;
50709;SDS011;37033;49.994;21.992;2023-03-11T04:39:23;12.70;;;6.00;;
50709;SDS011;37033;49.994;21.992;2023-03-11T04:41:54;12.20;;;5.80;;
50709;SDS011;37033;49.994;21.992;2023-03-11T04:44:25;8.10;;;4.20;;
50709;SDS011;37033;49.994;21.992;2023-03-11T04:46:55;4.80;;;2.70;;
50709;SDS011;37033;49.994;21.992;2023-03-11T04:49:26;5.00;;;3.40;;
50709;SDS011;37033;49.994;21.992;2023-03-11T04:51:57;5.50;;;3.40;;
50709;SDS011;37033;49.994;21.992;2023-03-11T04:54:28;6.10;;;3.70;;
50709;SDS011;37033;49.994;21.992;2023-03-11T04:56:58;3.80;;;3.10;;
50709;SDS011;37033;49.994;21.992;2023-03-11T04:59:29;4.20;;;3.10;;
50709;SDS011;37033;49.994;21.992;2023-03-11T05:02:00;5.40;;;3.20;;
50709;SDS011;37033;49.994;21.992;2023-03-11T05:04:30;4.80;;;3.00;;
50709;SDS011;37033;49.994;21.992;2023-03-11T05:07:01;3.30;;;2.90;;
50709;SDS011;37033;49.994;21.992;2023-03-11T05:09:33;3.50;;;3.20;;
50709;SDS011;37033;49.994;21.992;2023-03-11T05:12:04;4.10;;;3.10;;
50709;SDS011;37033;49.994;21.992;2023-03-11T05:14:36;4.50;;;3.50;;
50709;SDS011;37033;49.994;21.992;2023-03-11T05:17:07;4.70;;;3.70;;
50709;SDS011;37033;49.994;21.992;2023-03-11T05:19:40;6.30;;;3.90;;
50709;SDS011;37033;49.994;21.992;2023-03-11T05:22:11;4.20;;;3.50;;
50709;SDS011;37033;49.994;21.992;2023-03-11T05:24:41;5.90;;;3.40;;
50709;SDS011;37033;49.994;21.992;2023-03-11T05:27:14;2.40;;;2.20;;
50709;SDS011;37033;49.994;21.992;2023-03-11T05:29:45;4.20;;;2.10;;
50709;SDS011;37033;49.994;21.992;2023-03-11T05:32:18;3.20;;;2.50;;
50709;SDS011;37033;49.994;21.992;2023-03-11T05:34:49;2.40;;;1.60;;
50709;SDS011;37033;49.994;21.992;2023-03-11T05:37:20;1.20;;;1.10;;
50709;SDS011;37033;49.994;21.992;2023-03-11T05:39:51;1.90;;;1.10;;
50709;SDS011;37033;49.994;21.992;2023-03-11T05:42:22;1.60;;;1.00;;
50709;SDS011;37033;49.994;21.992;2023-03-11T05:44:56;1.50;;;1.20;;
50709;SDS011;37033;49.994;21.992;2023-03-11T05:47:30;2.40;;;1.20;;
50709;SDS011;37033;49.994;21.992;2023-03-11T05:50:01;3.00;;;2.00;;
50709;SDS011;37033;49.994;21.992;2023-03-11T05:52:34;6.30;;;3.10;;
50709;SDS011;37033;49.994;21.992;2023-03-11T05:55:10;5.70;;;3.80;;
50709;SDS011;37033;49.994;21.992;2023-03-11T05:57:41;3.60;;;2.00;;
50709;SDS011;37033;49.994;21.992;2023-03-11T06:00:12;5.70;;;3.00;;
50709;SDS011;37033;49.994;21.992;2023-03-11T06:02:47;10.40;;;5.30;;
50709;SDS011;37033;49.994;21.992;2023-03-11T06:05:18;4.50;;;2.20;;
50709;SDS011;37033;49.994;21.992;2023-03-11T06:07:48;3.90;;;2.20;;
50709;SDS011;37033;49.994;21.992;2023-03-11T06:10:20;10.20;;;4.40;;
50709;SDS011;37033;49.994;21.992;2023-03-11T06:12:50;11.10;;;5.20;;
50709;SDS011;37033;49.994;21.992;2023-03-11T06:15:21;12.90;;;5.80;;
50709;SDS011;37033;49.994;21.992;2023-03-11T06:17:52;28.00;;;11.30;;
50709;SDS011;37033;49.994;21.992;2023-03-11T06:20:22;30.40;;;11.80;;
50709;SDS011;37033;49.994;21.992;2023-03-11T06:22:53;20.80;;;9.40;;
50709;SDS011;37033;49.994;21.992;2023-03-11T06:25:29;17.70;;;6.90;;
50709;SDS011;37033;49.994;21.992;2023-03-11T06:28:03;5.10;;;2.10;;
50709;SDS011;37033;49.994;21.992;2023-03-11T06:30:34;2.00;;;1.10;;
50709;SDS011;37033;49.994;21.992;2023-03-11T06:33:05;4.40;;;2.30;;
50709;SDS011;37033;49.994;21.992;2023-03-11T06:35:35;8.20;;;3.10;;
50709;SDS011;37033;49.994;21.992;2023-03-11T06:38:06;7.20;;;3.30;;
50709;SDS011;37033;49.994;21.992;2023-03-11T06:40:37;4.40;;;2.30;;
50709;SDS011;37033;49.994;21.992;2023-03-11T06:43:08;5.50;;;3.30;;
50709;SDS011;37033;49.994;21.992;2023-03-11T06:45:40;6.20;;;3.40;;
50709;SDS011;37033;49.994;21.992;2023-03-11T06:48:11;1.90;;;1.00;;
50709;SDS011;37033;49.994;21.992;2023-03-11T06:50:42;1.30;;;0.90;;
50709;SDS011;37033;49.994;21.992;2023-03-11T06:53:13;1.50;;;0.70;;
50709;SDS011;37033;49.994;21.992;2023-03-11T06:55:43;1.00;;;0.60;;
50709;SDS011;37033;49.994;21.992;2023-03-11T06:58:26;1.90;;;0.50;;
50709;SDS011;37033;49.994;21.992;2023-03-11T07:01:00;2.00;;;0.70;;
50709;SDS011;37033;49.994;21.992;2023-03-11T07:03:31;0.90;;;0.70;;
50709;SDS011;37033;49.994;21.992;2023-03-11T07:06:02;0.90;;;0.70;;
50709;SDS011;37033;49.994;21.992;2023-03-11T07:08:33;3.70;;;0.70;;
50709;SDS011;37033;49.994;21.992;2023-03-11T07:11:05;2.50;;;0.90;;
50709;SDS011;37033;49.994;21.992;2023-03-11T07:13:37;2.10;;;0.70;;
50709;SDS011;37033;49.994;21.992;2023-03-11T07:16:09;1.70;;;1.00;;
50709;SDS011;37033;49.994;21.992;2023-03-11T07:18:42;1.60;;;0.80;;
50709;SDS011;37033;49.994;21.992;2023-03-11T07:21:15;2.20;;;1.30;;
50709;SDS011;37033;49.994;21.992;2023-03-11T07:23:50;2.00;;;0.90;;
50709;SDS011;37033;49.994;21.992;2023-03-11T07:26:22;0.60;;;0.60;;
50709;SDS011;37033;49.994;21.992;2023-03-11T07:28:55;2.10;;;0.70;;
50709;SDS011;37033;49.994;21.992;2023-03-11T07:31:28;0.90;;;0.70;;
50709;SDS011;37033;49.994;21.992;2023-03-11T07:34:04;2.50;;;0.80;;
50709;SDS011;37033;49.994;21.992;2023-03-11T07:36:39;0.80;;;0.60;;
50709;SDS011;37033;49.994;21.992;2023-03-11T07:39:12;2.80;;;0.90;;
50709;SDS011;37033;49.994;21.992;2023-03-11T07:41:44;2.80;;;0.80;;
50709;SDS011;37033;49.994;21.992;2023-03-11T07:44:15;3.10;;;0.90;;
50709;SDS011;37033;49.994;21.992;2023-03-11T07:46:46;1.30;;;0.60;;
50709;SDS011;37033;49.994;21.992;2023-03-11T07:49:20;0.90;;;0.80;;
50709;SDS011;37033;49.994;21.992;2023-03-11T07:51:53;2.80;;;1.20;;
50709;SDS011;37033;49.994;21.992;2023-03-11T07:54:24;3.80;;;1.20;;
50709;SDS011;37033;49.994;21.992;2023-03-11T07:56:55;1.60;;;0.80;;
50709;SDS011;37033;49.994;21.992;2023-03-11T07:59:30;1.40;;;0.70;;
50709;SDS011;37033;49.994;21.992;2023-03-11T08:02:04;16.90;;;9.80;;
50709;SDS011;37033;49.994;21.992;2023-03-11T08:04:34;2.00;;;0.80;;
50709;SDS011;37033;49.994;21.992;2023-03-11T08:07:05;1.20;;;0.70;;
50709;SDS011;37033;49.994;21.992;2023-03-11T08:09:36;1.40;;;1.00;;
50709;SDS011;37033;49.994;21.992;2023-03-11T08:12:08;0.80;;;0.70;;
50709;SDS011;37033;49.994;21.992;2023-03-11T08:14:39;1.20;;;0.90;;
50709;SDS011;37033;49.994;21.992;2023-03-11T08:17:10;1.30;;;0.80;;
50709;SDS011;37033;49.994;21.992;2023-03-11T08:19:41;1.80;;;1.20;;
50709;SDS011;37033;49.994;21.992;2023-03-11T08:22:12;1.10;;;0.90;;
50709;SDS011;37033;49.994;21.992;2023-03-11T08:24:42;1.40;;;1.00;;
50709;SDS011;37033;49.994;21.992;2023-03-11T08:27:13;1.40;;;1.20;;
50709;SDS011;37033;49.994;21.992;2023-03-11T08:29:44;1.70;;;1.20;;
50709;SDS011;37033;49.994;21.992;2023-03-11T08:32:15;2.50;;;1.30;;
50709;SDS011;37033;49.994;21.992;2023-03-11T08:34:46;2.20;;;1.90;;
50709;SDS011;37033;49.994;21.992;2023-03-11T08:37:17;1.20;;;1.00;;
50709;SDS011;37033;49.994;21.992;2023-03-11T08:39:50;0.70;;;0.60;;
50709;SDS011;37033;49.994;21.992;2023-03-11T08:42:21;1.20;;;0.80;;
50709;SDS011;37033;49.994;21.992;2023-03-11T08:44:52;1.10;;;0.60;;
50709;SDS011;37033;49.994;21.992;2023-03-11T08:47:23;2.00;;;0.80;;
50709;SDS011;37033;49.994;21.992;2023-03-11T08:49:54;0.80;;;0.60;;
50709;SDS011;37033;49.994;21.992;2023-03-11T08:52:24;0.90;;;0.60;;
50709;SDS011;37033;49.994;21.992;2023-03-11T08:54:55;0.70;;;0.60;;
50709;SDS011;37033;49.994;21.992;2023-03-11T08:57:26;1.50;;;0.80;;
50709;SDS011;37033;49.994;21.992;2023-03-11T08:59:57;2.10;;;1.00;;
50709;SDS011;37033;49.994;21.992;2023-03-11T09:02:31;0.80;;;0.70;;
50709;SDS011;37033;49.994;21.992;2023-03-11T09:05:02;1.70;;;0.90;;
50709;SDS011;37033;49.994;21.992;2023-03-11T09:07:33;1.00;;;0.80;;
50709;SDS011;37033;49.994;21.992;2023-03-11T09:10:05;1.70;;;1.10;;
50709;SDS011;37033;49.994;21.992;2023-03-11T09:12:36;1.20;;;0.80;;
50709;SDS011;37033;49.994;21.992;2023-03-11T09:15:11;1.10;;;0.90;;
50709;SDS011;37033;49.994;21.992;2023-03-11T09:17:42;6.00;;;0.80;;
50709;SDS011;37033;49.994;21.992;2023-03-11T09:20:13;0.70;;;0.50;;
50709;SDS011;37033;49.994;21.992;2023-03-11T09:22:46;0.80;;;0.60;;
50709;SDS011;37033;49.994;21.992;2023-03-11T09:25:17;1.60;;;0.50;;
50709;SDS011;37033;49.994;21.992;2023-03-11T09:27:48;1.30;;;0.60;;
50709;SDS011;37033;49.994;21.992;2023-03-11T09:30:21;1.60;;;0.90;;
50709;SDS011;37033;49.994;21.992;2023-03-11T09:32:52;0.70;;;0.60;;
50709;SDS011;37033;49.994;21.992;2023-03-11T09:35:25;1.40;;;0.70;;
50709;SDS011;37033;49.994;21.992;2023-03-11T09:37:56;1.50;;;0.70;;
50709;SDS011;37033;49.994;21.992;2023-03-11T09:40:28;1.20;;;0.80;;
50709;SDS011;37033;49.994;21.992;2023-03-11T09:43:13;3.00;;;1.40;;
50709;SDS011;37033;49.994;21.992;2023-03-11T09:45:54;1.40;;;1.00;;
50709;SDS011;37033;49.994;21.992;2023-03-11T09:48:35;1.60;;;0.90;;
50709;SDS011;37033;49.994;21.992;2023-03-11T09:51:09;2.40;;;1.10;;
50709;SDS011;37033;49.994;21.992;2023-03-11T09:53:45;1.50;;;1.30;;
50709;SDS011;37033;49.994;21.992;2023-03-11T09:56:20;1.70;;;1.00;;
50709;SDS011;37033;49.994;21.992;2023-03-11T09:58:55;3.90;;;1.70;;
50709;SDS011;37033;49.994;21.992;2023-03-11T10:01:31;2.00;;;1.40;;
50709;SDS011;37033;49.994;21.992;2023-03-11T10:04:05;2.60;;;1.00;;
50709;SDS011;37033;49.994;21.992;2023-03-11T10:06:44;2.30;;;1.40;;
50709;SDS011;37033;49.994;21.992;2023-03-11T10:09:24;1.90;;;1.30;;
50709;SDS011;37033;49.994;21.992;2023-03-11T10:14:51;5.00;;;3.40;;
50709;SDS011;37033;49.994;21.992;2023-03-11T10:17:38;2.00;;;1.40;;
50709;SDS011;37033;49.994;21.992;2023-03-11T10:20:19;1.40;;;1.30;;
50709;SDS011;37033;49.994;21.992;2023-03-11T10:22:58;1.70;;;1.30;;
50709;SDS011;37033;49.994;21.992;2023-03-11T10:25:41;2.00;;;1.70;;
50709;SDS011;37033;49.994;21.992;2023-03-11T10:28:23;1.70;;;1.30;;
50709;SDS011;37033;49.994;21.992;2023-03-11T10:31:01;1.40;;;1.00;;
50709;SDS011;37033;49.994;21.992;2023-03-11T10:33:46;1.40;;;1.10;;
50709;SDS011;37033;49.994;21.992;2023-03-11T10:36:23;1.60;;;1.10;;
50709;SDS011;37033;49.994;21.992;2023-03-11T10:39:02;2.60;;;1.60;;
50709;SDS011;37033;49.994;21.992;2023-03-11T10:41:38;2.30;;;1.50;;
50709;SDS011;37033;49.994;21.992;2023-03-11T10:44:12;2.20;;;1.80;;
50709;SDS011;37033;49.994;21.992;2023-03-11T10:46:47;2.60;;;1.40;;
50709;SDS011;37033;49.994;21.992;2023-03-11T10:49:20;1.20;;;1.10;;
50709;SDS011;37033;49.994;21.992;2023-03-11T10:51:51;1.60;;;1.40;;
50709;SDS011;37033;49.994;21.992;2023-03-11T10:54:24;2.70;;;1.90;;
50709;SDS011;37033;49.994;21.992;2023-03-11T10:57:01;2.90;;;2.10;;
50709;SDS011;37033;49.994;21.992;2023-03-11T10:59:44;3.20;;;2.70;;
50709;SDS011;37033;49.994;21.992;2023-03-11T11:02:24;3.30;;;2.10;;
50709;SDS011;37033;49.994;21.992;2023-03-11T11:05:04;2.80;;;2.00;;
50709;SDS011;37033;49.994;21.992;2023-03-11T11:08:01;3.80;;;2.30;;
50709;SDS011;37033;49.994;21.992;2023-03-11T11:10:37;3.50;;;2.70;;
50709;SDS011;37033;49.994;21.992;2023-03-11T11:13:19;3.50;;;1.80;;
50709;SDS011;37033;49.994;21.992;2023-03-11T11:15:52;2.40;;;2.00;;
50709;SDS011;37033;49.994;21.992;2023-03-11T11:18:26;4.20;;;2.40;;
50709;SDS011;37033;49.994;21.992;2023-03-11T11:23:32;2.70;;;1.70;;
50709;SDS011;37033;49.994;21.992;2023-03-11T11:26:17;3.50;;;2.80;;
50709;SDS011;37033;49.994;21.992;2023-03-11T11:29:03;2.80;;;2.10;;
50709;SDS011;37033;49.994;21.992;2023-03-11T11:31:40;3.00;;;2.20;;
50709;SDS011;37033;49.994;21.992;2023-03-11T11:34:23;2.00;;;1.70;;
50709;SDS011;37033;49.994;21.992;2023-03-11T11:39:29;1.80;;;1.70;;
50709;SDS011;37033;49.994;21.992;2023-03-11T11:42:11;2.80;;;1.80;;
50709;SDS011;37033;49.994;21.992;2023-03-11T11:44:43;2.30;;;1.80;;
50709;SDS011;37033;49.994;21.992;2023-03-11T11:47:18;2.30;;;1.70;;
50709;SDS011;37033;49.994;21.992;2023-03-11T11:49:53;3.80;;;1.90;;
50709;SDS011;37033;49.994;21.992;2023-03-11T11:52:26;2.70;;;1.80;;
50709;SDS011;37033;49.994;21.992;2023-03-11T11:54:59;2.40;;;1.90;;
50709;SDS011;37033;49.994;21.992;2023-03-11T11:57:38;3.00;;;2.10;;
50709;SDS011;37033;49.994;21.992;2023-03-11T12:00:14;4.80;;;2.30;;
50709;SDS011;37033;49.994;21.992;2023-03-11T12:02:59;3.20;;;2.90;;
50709;SDS011;37033;49.994;21.992;2023-03-11T12:05:47;2.80;;;2.30;;
50709;SDS011;37033;49.994;21.992;2023-03-11T12:08:25;2.30;;;2.10;;
50709;SDS011;37033;49.994;21.992;2023-03-11T12:11:04;2.50;;;2.10;;
50709;SDS011;37033;49.994;21.992;2023-03-11T12:13:45;4.50;;;3.80;;
50709;SDS011;37033;49.994;21.992;2023-03-11T12:16:25;3.00;;;2.20;;
50709;SDS011;37033;49.994;21.992;2023-03-11T12:19:03;2.20;;;1.90;;
50709;SDS011;37033;49.994;21.992;2023-03-11T12:21:53;2.90;;;1.90;;
50709;SDS011;37033;49.994;21.992;2023-03-11T12:24:55;3.10;;;2.00;;
50709;SDS011;37033;49.994;21.992;2023-03-11T12:27:42;4.40;;;3.50;;
50709;SDS011;37033;49.994;21.992;2023-03-11T12:30:17;2.50;;;2.10;;
50709;SDS011;37033;49.994;21.992;2023-03-11T12:32:54;2.70;;;1.90;;
50709;SDS011;37033;49.994;21.992;2023-03-11T12:35:29;2.40;;;2.20;;
50709;SDS011;37033;49.994;21.992;2023-03-11T12:38:03;3.10;;;1.90;;
50709;SDS011;37033;49.994;21.992;2023-03-11T12:40:49;3.40;;;2.30;;
50709;SDS011;37033;49.994;21.992;2023-03-11T12:49:21;2.00;;;1.50;;
50709;SDS011;37033;49.994;21.992;2023-03-11T12:52:03;3.20;;;2.30;;
50709;SDS011;37033;49.994;21.992;2023-03-11T12:54:48;3.20;;;2.10;;
50709;SDS011;37033;49.994;21.992;2023-03-11T12:57:41;3.90;;;3.00;;
50709;SDS011;37033;49.994;21.992;2023-03-11T13:00:40;3.40;;;1.80;;
50709;SDS011;37033;49.994;21.992;2023-03-11T13:03:33;3.00;;;2.10;;
50709;SDS011;37033;49.994;21.992;2023-03-11T13:06:14;2.50;;;2.20;;
50709;SDS011;37033;49.994;21.992;2023-03-11T13:08:58;3.30;;;2.30;;
50709;SDS011;37033;49.994;21.992;2023-03-11T13:11:34;3.50;;;2.10;;
50709;SDS011;37033;49.994;21.992;2023-03-11T13:14:15;2.50;;;2.10;;
50709;SDS011;37033;49.994;21.992;2023-03-11T13:16:56;3.60;;;2.10;;
50709;SDS011;37033;49.994;21.992;2023-03-11T13:19:48;2.60;;;2.40;;
50709;SDS011;37033;49.994;21.992;2023-03-11T13:25:28;3.10;;;1.90;;
50709;SDS011;37033;49.994;21.992;2023-03-11T13:28:18;2.60;;;1.70;;
50709;SDS011;37033;49.994;21.992;2023-03-11T13:31:04;2.90;;;2.30;;
50709;SDS011;37033;49.994;21.992;2023-03-11T13:33:46;2.40;;;2.00;;
50709;SDS011;37033;49.994;21.992;2023-03-11T13:36:31;3.90;;;1.80;;
50709;SDS011;37033;49.994;21.992;2023-03-11T13:42:11;3.80;;;2.60;;
50709;SDS011;37033;49.994;21.992;2023-03-11T13:44:46;5.30;;;2.50;;
50709;SDS011;37033;49.994;21.992;2023-03-11T13:47:17;5.50;;;2.20;;
50709;SDS011;37033;49.994;21.992;2023-03-11T13:49:50;4.30;;;2.70;;
50709;SDS011;37033;49.994;21.992;2023-03-11T13:52:29;3.50;;;1.90;;
50709;SDS011;37033;49.994;21.992;2023-03-11T13:55:03;3.80;;;2.30;;
50709;SDS011;37033;49.994;21.992;2023-03-11T13:57:47;3.30;;;1.50;;
50709;SDS011;37033;49.994;21.992;2023-03-11T14:00:20;3.20;;;2.00;;
50709;SDS011;37033;49.994;21.992;2023-03-11T14:02:53;4.00;;;2.50;;
50709;SDS011;37033;49.994;21.992;2023-03-11T14:05:26;3.40;;;2.20;;
50709;SDS011;37033;49.994;21.992;2023-03-11T14:08:11;3.20;;;2.40;;
50709;SDS011;37033;49.994;21.992;2023-03-11T14:10:53;2.50;;;1.70;;
50709;SDS011;37033;49.994;21.992;2023-03-11T14:13:26;3.60;;;2.60;;
50709;SDS011;37033;49.994;21.992;2023-03-11T14:15:59;4.20;;;2.50;;
50709;SDS011;37033;49.994;21.992;2023-03-11T14:18:35;4.20;;;2.50;;
50709;SDS011;37033;49.994;21.992;2023-03-11T14:21:10;4.70;;;3.00;;
50709;SDS011;37033;49.994;21.992;2023-03-11T14:23:46;4.80;;;3.00;;
50709;SDS011;37033;49.994;21.992;2023-03-11T14:26:18;4.70;;;2.50;;
50709;SDS011;37033;49.994;21.992;2023-03-11T14:28:52;3.10;;;2.40;;
50709;SDS011;37033;49.994;21.992;2023-03-11T14:31:30;3.50;;;2.20;;
50709;SDS011;37033;49.994;21.992;2023-03-11T14:34:03;4.10;;;2.20;;
50709;SDS011;37033;49.994;21.992;2023-03-11T14:36:42;3.60;;;1.90;;
50709;SDS011;37033;49.994;21.992;2023-03-11T14:39:24;3.20;;;2.20;;
50709;SDS011;37033;49.994;21.992;2023-03-11T14:41:57;2.60;;;1.90;;
50709;SDS011;37033;49.994;21.992;2023-03-11T14:44:39;4.80;;;2.20;;
50709;SDS011;37033;49.994;21.992;2023-03-11T14:47:14;1.80;;;1.50;;
50709;SDS011;37033;49.994;21.992;2023-03-11T14:49:49;2.30;;;1.50;;
50709;SDS011;37033;49.994;21.992;2023-03-11T14:52:23;4.10;;;2.20;;
50709;SDS011;37033;49.994;21.992;2023-03-11T14:55:01;2.90;;;1.60;;
50709;SDS011;37033;49.994;21.992;2023-03-11T14:57:43;2.70;;;1.60;;
50709;SDS011;37033;49.994;21.992;2023-03-11T15:00:18;1.80;;;1.40;;
50709;SDS011;37033;49.994;21.992;2023-03-11T15:02:57;2.70;;;1.60;;
50709;SDS011;37033;49.994;21.992;2023-03-11T15:05:40;2.60;;;1.60;;
50709;SDS011;37033;49.994;21.992;2023-03-11T15:08:18;3.50;;;2.30;;
50709;SDS011;37033;49.994;21.992;2023-03-11T15:13:52;4.20;;;2.50;;
50709;SDS011;37033;49.994;21.992;2023-03-11T15:16:36;4.80;;;2.60;;
50709;SDS011;37033;49.994;21.992;2023-03-11T15:19:21;3.40;;;2.60;;
50709;SDS011;37033;49.994;21.992;2023-03-11T15:22:21;4.80;;;2.50;;
50709;SDS011;37033;49.994;21.992;2023-03-11T15:24:56;3.80;;;2.20;;
50709;SDS011;37033;49.994;21.992;2023-03-11T15:27:29;5.50;;;2.30;;
50709;SDS011;37033;49.994;21.992;2023-03-11T15:30:03;3.70;;;2.80;;
50709;SDS011;37033;49.994;21.992;2023-03-11T15:32:48;4.20;;;2.90;;
50709;SDS011;37033;49.994;21.992;2023-03-11T15:35:23;3.60;;;2.60;;
50709;SDS011;37033;49.994;21.992;2023-03-11T15:40:50;4.10;;;2.50;;
50709;SDS011;37033;49.994;21.992;2023-03-11T15:43:24;3.00;;;2.30;;